Time;durP1;ratioP1;P1;durP2;ratioP2;P2;SDS_P1;SDS_P2;PMS_P1;PMS_P2;Temp;Humidity;BMP_temperature;BMP_pressure;BME280_temperature;BME280_humidity;BME280_pressure;Samples;Min_cycle;Max_cycle;Signal;HPM_P1;HPM_P2
2022/11/17 00:00:32;;;;;;;2.87;1.65;;;;;;;3.38;100.00;98682.32;1742291;81;22313;-69
2022/11/17 00:02:59;;;;;;;1.72;1.62;;;;;;;3.39;100.00;98678.38;1743025;81;21792;-70
2022/11/17 00:05:26;;;;;;;2.52;2.00;;;;;;;3.38;100.00;98676.67;1737045;81;21554;-70
2022/11/17 00:07:53;;;;;;;2.65;2.05;;;;;;;3.38;100.00;98683.63;1746013;80;21479;-70
2022/11/17 00:10:20;;;;;;;2.37;2.22;;;;;;;3.38;100.00;98678.42;1743509;80;21579;-68
2022/11/17 00:15:32;;;;;;;3.15;2.47;;;;;;;3.27;100.00;98687.81;1745353;81;21458;-68
2022/11/17 00:23:48;;;;;;;2.37;2.17;;;;;;;3.20;100.00;98681.96;1745607;80;21490;-67
2022/11/17 00:26:19;;;;;;;2.30;2.10;;;;;;;3.22;100.00;98684.48;1738107;80;21545;-67
2022/11/17 00:28:45;;;;;;;2.70;2.50;;;;;;;3.22;100.00;98676.70;1749103;80;21789;-67
2022/11/17 00:34:20;;;;;;;2.15;2.00;;;;;;;3.20;100.00;98676.77;1742473;79;21510;-67
2022/11/17 00:36:51;;;;;;;2.60;2.40;;;;;;;3.16;100.00;98676.42;1750473;80;21549;-68
2022/11/17 00:39:20;;;;;;;2.50;2.30;;;;;;;3.15;100.00;98682.52;1739676;81;21552;-68
2022/11/17 00:41:48;;;;;;;2.40;2.20;;;;;;;3.11;100.00;98678.31;1740517;80;23114;-67
2022/11/17 00:44:16;;;;;;;2.40;2.20;;;;;;;3.01;100.00;98678.16;1750057;79;21222;-68
2022/11/17 00:46:42;;;;;;;2.52;2.33;;;;;;;2.93;100.00;98690.05;1754335;81;21045;-68
2022/11/17 00:49:10;;;;;;;2.37;2.25;;;;;;;2.93;100.00;98691.34;1756219;79;21481;-71
2022/11/17 00:51:37;;;;;;;2.25;2.15;;;;;;;2.93;100.00;98673.17;1756617;80;21532;-69
2022/11/17 00:54:04;;;;;;;2.22;2.10;;;;;;;2.98;100.00;98678.25;1754147;80;22024;-69
2022/11/17 00:56:31;;;;;;;2.62;2.42;;;;;;;3.01;100.00;98678.99;1745640;81;21423;-68
2022/11/17 00:58:58;;;;;;;2.10;2.00;;;;;;;3.05;100.00;98681.06;1751941;80;21448;-68
2022/11/17 01:01:24;;;;;;;3.52;2.30;;;;;;;3.09;100.00;98678.36;1751225;80;21533;-69
2022/11/17 01:04:01;;;;;;;2.58;2.30;;;;;;;3.09;100.00;98669.72;1735623;81;21121;-67
2022/11/17 01:06:20;;;;;;;2.72;2.50;;;;;;;3.08;100.00;98672.74;1733786;80;21778;-68
2022/11/17 01:08:47;;;;;;;2.45;2.10;;;;;;;3.12;100.00;98670.45;1800568;78;25519;-67
2022/11/17 01:11:17;;;;;;;2.85;2.65;;;;;;;3.14;100.00;98672.17;1795345;77;21510;-71
2022/11/17 01:13:46;;;;;;;2.45;2.25;;;;;;;3.12;100.00;98670.45;1795547;77;21494;-71
2022/11/17 01:16:16;;;;;;;3.00;2.80;;;;;;;3.15;100.00;98668.70;1787514;78;21452;-69
2022/11/17 01:18:46;;;;;;;2.80;2.60;;;;;;;3.12;100.00;98663.97;1799949;78;21498;-70
2022/11/17 01:21:17;;;;;;;4.72;2.70;;;;;;;3.09;100.00;98666.66;1768419;79;21415;-68
2022/11/17 01:23:45;;;;;;;2.95;2.75;;;;;;;3.08;100.00;98658.91;1761049;79;21549;-68
2022/11/17 01:26:13;;;;;;;3.47;3.12;;;;;;;3.08;100.00;98663.65;1806087;77;21437;-68
2022/11/17 01:28:40;;;;;;;3.05;2.80;;;;;;;3.09;100.00;98666.66;1766291;79;21603;-70
2022/11/17 01:31:21;;;;;;;3.20;2.65;;;;;;;3.11;100.00;98668.77;1791460;78;21749;-67
2022/11/17 01:33:48;;;;;;;3.10;2.90;;;;;;;3.09;100.00;98669.72;1794232;77;21458;-69
2022/11/17 01:36:27;;;;;;;3.22;2.92;;;;;;;3.10;100.00;98677.90;1802218;78;21596;-68
2022/11/17 01:38:54;;;;;;;3.05;2.85;;;;;;;3.08;100.00;98680.98;1748602;80;21546;-69
2022/11/17 01:41:23;;;;;;;2.92;2.72;;;;;;;3.06;100.00;98677.59;1799109;78;21430;-68
2022/11/17 01:43:53;;;;;;;3.12;2.83;;;;;;;3.06;100.00;98674.98;1792069;77;21674;-67
2022/11/17 01:46:37;;;;;;;3.65;3.35;;;;;;;3.02;100.00;98674.22;1750236;80;21435;-68
2022/11/17 01:49:16;;;;;;;3.87;3.58;;;;;;;2.97;100.00;98673.94;1807607;78;21517;-68
2022/11/17 01:51:46;;;;;;;;;;;;;;;2.86;100.00;98671.20;1769505;79;21414;-69
2022/11/17 01:54:16;;;;;;;4.42;4.03;;;;;;;2.80;100.00;98678.29;1768379;79;20455;-68
2022/11/17 01:56:44;;;;;;;4.37;3.77;;;;;;;2.79;100.00;98672.67;1793595;78;21604;-70
2022/11/17 01:59:21;;;;;;;4.45;4.15;;;;;;;2.82;100.00;98674.75;1757449;80;21006;-70
2022/11/17 02:01:56;;;;;;;3.95;3.65;;;;;;;2.82;100.00;98672.16;1761670;80;21004;-69
2022/11/17 02:04:34;;;;;;;3.47;3.27;;;;;;;2.79;100.00;98672.25;1801252;78;21707;-68
2022/11/17 02:07:19;;;;;;;3.80;3.50;;;;;;;2.81;100.00;98670.92;1769697;80;21549;-71
2022/11/17 02:09:45;;;;;;;4.03;3.72;;;;;;;2.83;100.00;98679.06;1789591;78;21839;-68
2022/11/17 02:12:12;;;;;;;4.58;4.17;;;;;;;2.81;100.00;98676.95;1808759;77;21509;-68
2022/11/17 02:14:40;;;;;;;4.78;4.37;;;;;;;2.83;100.00;98673.88;1758354;79;21450;-67
2022/11/17 02:17:08;;;;;;;4.33;4.03;;;;;;;2.86;100.00;98676.40;1755991;79;21437;-69
2022/11/17 02:19:38;;;;;;;4.83;4.37;;;;;;;2.86;100.00;98682.89;1797333;77;21445;-72
2022/11/17 02:22:46;;;;;;;5.22;4.83;;;;;;;2.88;100.00;98675.03;1800569;78;21545;-69
2022/11/17 02:25:31;;;;;;;;;;;;;;;2.91;100.00;98670.61;1802104;78;21457;-69
2022/11/17 02:28:33;;;;;;;5.42;4.28;;;;;;;2.76;100.00;98671.03;1799278;78;20433;-71
2022/11/17 02:31:23;;;;;;;4.50;4.10;;;;;;;2.78;100.00;98669.69;1795384;78;21023;-71
2022/11/17 02:34:04;;;;;;;4.53;4.12;;;;;;;2.79;100.00;98668.78;1794803;78;21620;-69
2022/11/17 02:36:55;;;;;;;4.92;4.53;;;;;;;2.79;100.00;98670.08;1796547;78;21391;-66
2022/11/17 02:39:34;;;;;;;5.03;4.62;;;;;;;2.85;100.00;98673.38;1769737;79;20938;-70
2022/11/17 02:42:15;;;;;;;4.78;4.37;;;;;;;2.86;100.00;98675.52;1771504;79;20979;-70
2022/11/17 02:44:59;;;;;;;5.75;4.75;;;;;;;2.83;100.00;98669.98;1796430;77;21454;-70
2022/11/17 02:47:28;;;;;;;5.80;5.22;;;;;;;2.81;100.00;98672.22;1801596;78;21483;-70
2022/11/17 02:49:59;;;;;;;5.85;5.28;;;;;;;2.81;100.00;98668.33;1765316;79;22020;-71
2022/11/17 02:52:26;;;;;;;5.47;4.97;;;;;;;2.77;100.00;98671.88;1771705;79;21556;-67
2022/11/17 02:55:01;;;;;;;5.33;4.92;;;;;;;2.76;100.00;98668.89;1753082;79;21602;-69
2022/11/17 02:57:31;;;;;;;5.22;4.72;;;;;;;2.78;100.00;98664.50;1740905;78;21675;-67
2022/11/17 03:00:05;;;;;;;5.10;4.70;;;;;;;2.78;100.00;98667.09;1800602;78;21475;-67
2022/11/17 03:02:54;;;;;;;5.47;4.97;;;;;;;2.77;100.00;98662.78;1760733;79;22319;-67
2022/11/17 03:05:53;;;;;;;4.80;4.40;;;;;;;2.78;100.00;98667.94;1796644;78;21406;-70
2022/11/17 03:08:47;;;;;;;5.33;4.90;;;;;;;2.76;100.00;98668.43;1761489;79;20943;-70
2022/11/17 03:11:14;;;;;;;4.80;4.40;;;;;;;2.73;100.00;98664.19;1753218;80;21506;-70
2022/11/17 03:14:02;;;;;;;5.85;5.28;;;;;;;2.73;100.00;98667.20;1748773;79;21579;-72
2022/11/17 03:16:39;;;;;;;5.40;5.00;;;;;;;2.76;100.00;98675.37;1758876;80;22172;-69
2022/11/17 03:19:20;;;;;;;5.65;5.15;;;;;;;2.69;100.00;98670.36;1800379;78;20997;-67
2022/11/17 03:21:57;;;;;;;6.62;6.03;;;;;;;2.70;100.00;98668.60;1804609;78;21037;-69
2022/11/17 03:24:40;;;;;;;5.70;5.15;;;;;;;2.70;100.00;98673.34;1753389;80;21873;-67
2022/11/17 03:27:14;;;;;;;5.20;4.80;;;;;;;2.66;100.00;98663.94;1768129;79;21447;-68
2022/11/17 03:29:42;;;;;;;5.87;5.37;;;;;;;2.64;100.00;98670.07;1745333;80;21884;-69
2022/11/17 03:32:09;;;;;;;5.87;5.37;;;;;;;2.62;100.00;98674.42;1806645;78;21398;-70
2022/11/17 03:34:40;;;;;;;4.62;4.25;;;;;;;2.62;100.00;98668.80;1787572;78;21536;-70
2022/11/17 03:37:08;;;;;;;5.42;4.92;;;;;;;2.56;100.00;98661.61;1799020;77;21470;-71
2022/11/17 03:39:45;;;;;;;5.10;4.58;;;;;;;2.52;100.00;98660.41;1802187;77;21537;-69
2022/11/17 03:42:17;;;;;;;6.15;5.55;;;;;;;2.51;100.00;98663.04;1800650;78;21788;-70
2022/11/17 03:44:48;;;;;;;6.10;5.50;;;;;;;2.46;100.00;98663.59;1770776;79;21773;-68
2022/11/17 03:47:15;;;;;;;6.12;5.60;;;;;;;2.47;100.00;98667.45;1797017;77;21996;-69
2022/11/17 03:49:56;;;;;;;5.87;5.37;;;;;;;2.48;100.00;98667.00;1803265;78;21426;-67
2022/11/17 03:52:24;;;;;;;5.67;5.17;;;;;;;2.46;100.00;98663.14;1802344;78;21486;-69
2022/11/17 03:54:52;;;;;;;5.87;5.37;;;;;;;2.49;100.00;98657.88;1802541;77;21947;-68
2022/11/17 03:57:32;;;;;;;6.10;5.35;;;;;;;2.50;100.00;98656.13;1797893;77;21474;-69
2022/11/17 04:00:07;;;;;;;5.55;5.10;;;;;;;2.49;100.00;98659.64;1758311;80;21545;-69
2022/11/17 04:02:46;;;;;;;7.00;5.70;;;;;;;2.47;100.00;98654.48;1779259;78;20946;-67
2022/11/17 04:05:14;;;;;;;6.47;5.87;;;;;;;2.47;100.00;98650.59;1789612;78;21470;-68
2022/11/17 04:07:46;;;;;;;6.33;5.45;;;;;;;2.46;100.00;98646.73;1799739;77;21838;-71
2022/11/17 04:10:19;;;;;;;6.40;5.80;;;;;;;2.49;100.00;98650.10;1773337;79;21414;-70
2022/11/17 04:16:07;;;;;;;7.20;5.05;;;;;;;2.45;100.00;98648.91;1814036;77;21457;-71
2022/11/17 04:18:10;;;;;;;5.75;5.25;;;;;;;2.44;100.00;98647.22;1769414;78;21584;-67
2022/11/17 04:20:37;;;;;;;8.43;5.70;;;;;;;2.42;100.00;98645.11;1802484;78;22167;-66
2022/11/17 04:23:12;;;;;;;6.20;5.37;;;;;;;2.42;100.00;98648.55;1789580;78;21485;-66
2022/11/17 04:28:35;;;;;;;5.75;5.25;;;;;;;2.37;100.00;98645.66;1785859;78;21479;-69
2022/11/17 04:31:21;;;;;;;5.80;5.20;;;;;;;2.33;100.00;98644.44;1793020;78;21584;-68
2022/11/17 04:33:56;;;;;;;5.87;5.37;;;;;;;2.31;100.00;98642.33;1805140;78;21881;-70
2022/11/17 04:36:33;;;;;;;7.00;5.72;;;;;;;2.30;100.00;98636.75;1800883;78;21540;-68
2022/11/17 04:38:59;;;;;;;6.05;5.37;;;;;;;2.30;100.00;98640.64;1756684;79;21517;-68
2022/11/17 04:44:15;;;;;;;5.67;5.20;;;;;;;2.28;100.00;98635.06;1794117;78;21484;-68
2022/11/17 04:46:43;;;;;;;5.80;5.28;;;;;;;2.23;100.00;98638.24;1794467;77;21901;-67
2022/11/17 04:49:10;;;;;;;6.72;6.10;;;;;;;2.25;100.00;98645.08;1796411;78;21641;-68
2022/11/17 04:51:37;;;;;;;6.80;6.17;;;;;;;2.22;100.00;98648.20;1797114;78;21029;-66
2022/11/17 04:54:04;;;;;;;6.03;5.53;;;;;;;2.14;100.00;98644.50;1794335;78;21539;-66
2022/11/17 04:56:32;;;;;;;6.22;5.65;;;;;;;2.10;100.00;98643.72;1766303;80;21466;-68
2022/11/17 04:58:59;;;;;;;6.17;5.58;;;;;;;2.14;100.00;98649.69;1795032;78;22189;-69
2022/11/17 05:01:26;;;;;;;5.90;5.30;;;;;;;2.19;100.00;98654.78;1791584;78;21533;-68
2022/11/17 05:03:59;;;;;;;6.35;5.75;;;;;;;2.19;100.00;98647.84;1761927;79;20996;-66
2022/11/17 05:06:36;;;;;;;6.20;5.60;;;;;;;2.23;100.00;98649.46;1759655;80;21517;-68
2022/11/17 05:09:07;;;;;;;6.72;6.12;;;;;;;2.18;100.00;98659.09;1765681;80;21415;-68
2022/11/17 05:14:21;;;;;;;5.97;5.35;;;;;;;2.19;100.00;98675.07;1748163;80;21600;-67
2022/11/17 05:19:39;;;;;;;6.00;5.13;;;;;;;2.09;100.00;98683.95;1748944;80;21540;-67
2022/11/17 05:23:52;;;;;;;5.92;5.33;;;;;;;1.98;100.00;98688.53;1744259;79;21580;-68
2022/11/17 05:24:36;;;;;;;5.97;5.45;;;;;;;1.93;100.00;98689.95;1741940;81;21745;-66
2022/11/17 05:27:02;;;;;;;5.85;5.35;;;;;;;1.95;100.00;98692.05;1736952;81;21463;-69
2022/11/17 05:29:30;;;;;;;;;;;;;;;1.95;100.00;98690.30;1745465;81;21013;-67
2022/11/17 05:31:56;;;;;;;5.75;5.17;;;;;;;1.95;100.00;98694.65;1761867;80;20550;-68
2022/11/17 05:34:23;;;;;;;6.50;5.90;;;;;;;1.94;100.00;98695.10;1810419;77;21394;-66
2022/11/17 05:36:49;;;;;;;8.08;6.28;;;;;;;1.99;100.00;98705.35;1801289;78;21852;-67
2022/11/17 05:39:16;;;;;;;6.20;5.70;;;;;;;2.04;100.00;98702.67;1806635;78;21521;-66
2022/11/17 05:41:43;;;;;;;7.15;6.45;;;;;;;2.05;100.00;98712.98;1766146;79;20960;-66
2022/11/17 05:44:09;;;;;;;6.65;6.05;;;;;;;2.06;100.00;98722.48;1757720;80;21856;-69
2022/11/17 05:46:36;;;;;;;7.37;6.65;;;;;;;2.09;100.00;98723.72;1773696;79;21475;-68
2022/11/17 05:49:03;;;;;;;6.30;5.70;;;;;;;2.11;100.00;98734.03;1764571;80;21840;-69
2022/11/17 05:51:31;;;;;;;7.37;5.72;;;;;;;2.10;100.00;98726.70;1762747;80;21573;-68
2022/11/17 05:53:58;;;;;;;7.90;6.55;;;;;;;2.12;100.00;98717.59;1800007;78;21520;-66
2022/11/17 05:56:36;;;;;;;6.87;6.20;;;;;;;2.15;100.00;98707.16;1756851;80;21437;-66
2022/11/17 05:59:30;;;;;;;7.60;6.80;;;;;;;2.17;100.00;98689.82;1753633;81;21410;-69
2022/11/17 06:02:07;;;;;;;7.33;6.37;;;;;;;2.14;100.00;98673.03;1742101;79;21823;-66
2022/11/17 06:04:34;;;;;;;8.20;5.97;;;;;;;2.09;100.00;98670.55;1756893;79;21055;-66
2022/11/17 06:07:00;;;;;;;7.80;7.08;;;;;;;2.06;100.00;98668.48;1749262;81;21498;-67
2022/11/17 06:09:33;;;;;;;7.55;6.60;;;;;;;2.06;100.00;98677.10;1752086;79;21555;-67
2022/11/17 06:12:00;;;;;;;8.05;7.30;;;;;;;2.05;100.00;98684.91;1755448;80;21485;-67
2022/11/17 06:14:26;;;;;;;7.45;6.72;;;;;;;2.06;100.00;98681.45;1747451;80;21899;-67
2022/11/17 12:56:26;;;;;;;19.27;13.98;;;;;;;-0.88;100.00;98575.67;1815503;75;26272;-59
2022/11/17 12:59:01;;;;;;;17.98;11.97;;;;;;;-0.36;100.00;98576.61;1746543;78;21611;-60
2022/11/17 13:01:45;;;;;;;15.38;12.45;;;;;;;-0.12;100.00;98560.71;1771500;79;21906;-59
2022/11/17 13:04:25;;;;;;;16.23;12.85;;;;;;;0.06;100.00;98554.39;1765961;80;21505;-59
2022/11/17 13:07:16;;;;;;;14.58;12.20;;;;;;;0.23;100.00;98546.74;1799168;78;21406;-62
2022/11/17 13:09:43;;;;;;;12.85;10.75;;;;;;;0.30;100.00;98541.45;1793441;78;21482;-63
2022/11/17 13:12:10;;;;;;;16.42;11.78;;;;;;;0.40;100.00;98536.95;1769284;78;21482;-61
2022/11/17 13:14:53;;;;;;;10.25;8.63;;;;;;;0.50;100.00;98532.45;1774825;78;21897;-61
2022/11/17 13:17:26;;;;;;;15.90;11.05;;;;;;;0.58;100.00;98530.55;1751273;79;21485;-63
2022/11/17 13:19:59;;;;;;;14.75;10.58;;;;;;;0.71;100.00;98528.12;1755763;80;21479;-64
2022/11/17 13:22:27;;;;;;;15.05;11.57;;;;;;;0.79;100.00;98525.38;1758308;79;21576;-64
2022/11/17 13:24:54;;;;;;;12.40;10.05;;;;;;;0.91;100.00;98525.13;1807674;77;21191;-64
2022/11/17 13:27:30;;;;;;;11.97;10.32;;;;;;;0.97;100.00;98522.84;1770556;79;21806;-62
2022/11/17 13:30:27;;;;;;;11.83;10.08;;;;;;;1.04;100.00;98513.22;1736740;80;21552;-66
2022/11/17 13:32:55;;;;;;;12.65;10.32;;;;;;;1.05;100.00;98514.45;1796120;77;21541;-62
2022/11/17 13:35:35;;;;;;;15.20;10.32;;;;;;;1.03;100.00;98500.70;1803219;78;20993;-65
2022/11/17 13:38:19;;;;;;;11.90;9.90;;;;;;;1.02;100.00;98505.48;1763720;80;20994;-63
2022/11/17 13:40:51;;;;;;;13.38;9.50;;;;;;;1.01;100.00;98497.30;1768715;80;21899;-67
2022/11/17 13:43:19;;;;;;;10.72;9.55;;;;;;;1.05;100.00;98496.78;1763936;79;21541;-63
2022/11/17 13:45:47;;;;;;;11.80;9.48;;;;;;;1.08;100.00;98498.86;1751320;80;21516;-63
2022/11/17 13:48:35;;;;;;;10.88;9.58;;;;;;;1.12;100.00;98494.02;1795267;78;21525;-64
2022/11/17 13:51:19;;;;;;;10.98;9.73;;;;;;;1.16;100.00;98483.16;1796322;78;20970;-67
2022/11/17 13:54:05;;;;;;;11.78;9.28;;;;;;;1.18;100.00;98492.18;1791440;78;21872;-62
2022/11/17 13:56:40;;;;;;;9.45;8.08;;;;;;;1.18;100.00;98488.30;1770014;79;21501;-61
2022/11/17 13:59:32;;;;;;;12.03;9.03;;;;;;;1.15;100.00;98491.83;1773970;79;21041;-65
2022/11/17 14:02:19;;;;;;;9.93;8.83;;;;;;;1.18;100.00;98485.71;1805974;78;21667;-63
2022/11/17 14:05:20;;;;;;;12.28;9.60;;;;;;;1.21;100.00;98488.23;1794253;78;21505;-62
2022/11/17 14:07:48;;;;;;;11.20;9.55;;;;;;;1.21;100.00;98494.27;1797599;78;21906;-65
2022/11/17 14:10:27;;;;;;;13.60;9.40;;;;;;;1.22;100.00;98501.58;1807958;78;21044;-67
2022/11/17 14:13:05;;;;;;;12.63;9.98;;;;;;;1.25;100.00;98507.54;1793299;78;21576;-62
2022/11/17 14:15:37;;;;;;;11.57;9.75;;;;;;;1.23;100.00;98509.77;1751233;80;21553;-60
2022/11/17 18:11:12;;;;;;;12.30;9.18;;;;;;;-2.15;100.00;98491.20;1830799;74;26816;-71
2022/11/17 18:13:41;;;;;;;11.48;7.83;;;;;;;-1.31;100.00;98532.38;1820234;77;21656;-70
2022/11/17 18:20:04;;;;;;;11.20;7.60;;;;;;;-0.89;100.00;98521.89;1796793;77;21673;-68
2022/11/17 18:22:30;;;;;;;9.33;6.95;;;;;;;-0.73;100.00;98512.20;1785674;77;21417;-69
2022/11/17 18:24:57;;;;;;;10.88;7.80;;;;;;;-0.57;100.00;98514.54;1785275;77;21430;-64
2022/11/17 18:27:25;;;;;;;10.90;7.17;;;;;;;-0.43;100.00;98503.11;1798636;76;20996;-68
2022/11/17 18:29:54;;;;;;;9.18;7.72;;;;;;;-0.31;100.00;98501.20;1812184;77;21852;-67
2022/11/17 18:32:20;;;;;;;13.65;7.40;;;;;;;-0.21;100.00;98500.15;1806916;77;21448;-68
2022/11/17 18:34:47;;;;;;;10.55;8.00;;;;;;;-0.14;100.00;98498.33;1813438;76;21683;-71
2022/11/17 18:37:13;;;;;;;8.58;6.90;;;;;;;-0.09;100.00;98494.78;1819223;76;21602;-69
2022/11/17 18:39:41;;;;;;;7.58;6.78;;;;;;;-0.06;100.00;98495.15;1817562;77;21102;-68
2022/11/17 18:42:08;;;;;;;9.03;6.50;;;;;;;0.02;100.00;98485.96;1805505;77;21830;-68
2022/11/17 18:44:35;;;;;;;7.25;6.53;;;;;;;0.06;100.00;98491.06;1811439;77;21506;-68
2022/11/17 18:47:04;;;;;;;9.53;7.10;;;;;;;0.09;100.00;98487.55;1803272;77;21508;-70
2022/11/17 18:49:33;;;;;;;8.00;6.62;;;;;;;0.12;100.00;98482.34;1787093;77;21545;-70
2022/11/17 18:52:00;;;;;;;9.18;7.37;;;;;;;0.20;100.00;98475.28;1778061;77;21484;-66
2022/11/17 18:54:26;;;;;;;7.07;6.37;;;;;;;0.23;100.00;98478.23;1793395;76;22021;-66
2022/11/17 18:56:53;;;;;;;7.22;6.47;;;;;;;0.25;100.00;98480.38;1816770;76;22354;-66
2022/11/17 18:59:20;;;;;;;7.37;6.28;;;;;;;0.27;100.00;98482.48;1784135;77;21474;-65
2022/11/17 19:01:48;;;;;;;6.47;5.85;;;;;;;0.29;100.00;98485.44;1760544;77;21688;-65
2022/11/17 19:04:14;;;;;;;5.62;4.72;;;;;;;0.30;100.00;98490.16;1802756;76;21641;-63
2022/11/17 19:06:41;;;;;;;9.00;6.58;;;;;;;0.27;100.00;98487.66;1824230;77;21970;-63
2022/11/17 19:09:12;;;;;;;7.35;6.37;;;;;;;0.28;100.00;98475.97;1801211;77;21054;-63
2022/11/17 19:11:39;;;;;;;6.85;6.05;;;;;;;0.29;100.00;98482.01;1788172;78;21695;-62
2022/11/17 19:14:06;;;;;;;8.45;6.53;;;;;;;0.30;100.00;98479.41;1830923;77;21619;-62
2022/11/17 19:16:38;;;;;;;;;;;;;;;0.28;100.00;98477.70;1810151;77;21487;-62
2022/11/17 19:19:05;;;;;;;6.83;6.15;;;;;;;0.23;100.00;98479.11;1791602;77;21721;-62
2022/11/17 19:21:33;;;;;;;8.18;5.90;;;;;;;0.27;100.00;98479.45;1804484;76;21597;-62
2022/11/17 19:24:01;;;;;;;6.95;6.15;;;;;;;0.30;100.00;98475.94;1805101;77;21513;-62
2022/11/17 19:26:31;;;;;;;6.92;5.92;;;;;;;0.34;100.00;98473.70;1782805;77;21506;-62
2022/11/17 19:28:59;;;;;;;6.90;5.47;;;;;;;0.37;100.00;98476.23;1815017;76;21548;-62
2022/11/17 19:31:27;;;;;;;6.75;6.05;;;;;;;0.38;100.00;98463.28;1770036;77;21837;-62
2022/11/17 19:33:55;;;;;;;6.30;5.70;;;;;;;0.38;100.00;98465.86;1803563;76;21403;-62
2022/11/17 19:36:28;;;;;;;8.80;6.22;;;;;;;0.38;100.00;98472.33;1817872;76;21499;-63
2022/11/17 19:38:56;;;;;;;6.53;5.92;;;;;;;0.34;100.00;98465.52;1823951;76;21475;-63
2022/11/17 19:41:29;;;;;;;7.08;6.37;;;;;;;0.35;100.00;98464.62;1809579;76;21490;-62
2022/11/17 19:43:59;;;;;;;7.67;6.30;;;;;;;0.36;100.00;98470.67;1800745;77;21416;-63
2022/11/17 19:46:26;;;;;;;7.00;5.90;;;;;;;0.35;100.00;98471.09;1793742;76;21027;-60
2022/11/17 19:48:54;;;;;;;8.10;6.53;;;;;;;0.37;100.00;98473.65;1820510;76;21491;-62
2022/11/17 19:51:23;;;;;;;6.30;5.70;;;;;;;0.41;100.00;98466.23;1802599;76;21029;-62
2022/11/17 19:53:52;;;;;;;7.40;6.28;;;;;;;0.42;100.00;98477.00;1813809;76;21386;-61
2022/11/17 19:56:19;;;;;;;6.47;5.87;;;;;;;0.39;100.00;98474.47;1798103;76;22196;-62
2022/11/17 19:58:47;;;;;;;7.20;6.60;;;;;;;0.38;100.00;98465.02;1811446;76;21050;-61
2022/11/17 20:01:19;;;;;;;7.67;6.97;;;;;;;0.34;100.00;98463.36;1824692;76;21506;-62
2022/11/17 20:03:46;;;;;;;7.55;6.00;;;;;;;0.31;100.00;98457.81;1817962;76;21010;-63
2022/11/17 20:06:15;;;;;;;6.67;6.07;;;;;;;0.30;100.00;98454.84;1829044;76;21568;-61
2022/11/17 20:08:42;;;;;;;7.05;6.12;;;;;;;0.38;100.00;98457.27;1795028;77;21893;-62
2022/11/17 20:11:15;;;;;;;8.98;6.25;;;;;;;0.41;100.00;98450.72;1813959;76;20982;-61
2022/11/17 20:13:42;;;;;;;8.83;6.37;;;;;;;0.43;100.00;98448.11;1795629;76;21527;-60
2022/11/17 20:16:14;;;;;;;6.72;6.00;;;;;;;0.45;100.00;98443.75;1809053;76;21458;-61
2022/11/17 20:18:43;;;;;;;9.25;6.90;;;;;;;0.46;100.00;98439.84;1827526;76;22294;-62
2022/11/17 20:21:10;;;;;;;8.20;6.12;;;;;;;0.45;100.00;98438.13;1826938;76;22036;-62
2022/11/17 20:23:37;;;;;;;7.75;6.42;;;;;;;0.42;100.00;98435.62;1780061;77;21544;-62
2022/11/17 20:26:07;;;;;;;7.33;6.37;;;;;;;0.38;100.00;98426.23;1786018;76;21547;-62
2022/11/17 20:28:35;;;;;;;7.62;5.75;;;;;;;0.42;100.00;98425.73;1797862;76;21556;-61
2022/11/17 20:31:08;;;;;;;;;;;;;;;0.39;100.00;98426.62;1828591;76;20911;-62
2022/11/17 20:33:38;;;;;;;7.28;5.95;;;;;;;0.31;100.00;98421.62;1814964;76;22120;-63
2022/11/17 20:36:10;;;;;;;6.87;6.10;;;;;;;0.39;100.00;98424.88;1816031;76;21631;-62
2022/11/17 20:38:34;;;;;;;7.50;6.50;;;;;;;0.46;100.00;98419.16;1811553;76;20994;-62
2022/11/17 20:41:01;;;;;;;6.77;6.13;;;;;;;0.48;100.00;98410.07;1811641;77;20955;-65
2022/11/17 20:43:29;;;;;;;;;;;;;;;0.46;100.00;98416.56;1818719;76;21447;-61
2022/11/17 20:45:56;;;;;;;7.95;5.60;;;;;;;0.44;100.00;98418.78;1814944;76;21776;-61
2022/11/17 20:48:23;;;;;;;8.65;6.17;;;;;;;0.49;100.00;98411.34;1788253;76;21011;-62
2022/11/17 20:51:01;;;;;;;7.97;5.93;;;;;;;0.49;100.00;98410.47;1807664;76;21097;-62
2022/11/17 20:53:29;;;;;;;8.90;5.85;;;;;;;0.49;100.00;98413.92;1742057;78;21490;-62
2022/11/17 20:55:56;;;;;;;9.23;6.10;;;;;;;0.51;100.00;98417.74;1812522;76;21416;-62
2022/11/17 20:58:24;;;;;;;;;;;;;;;0.49;100.00;98414.34;1824226;76;21864;-62
2022/11/17 21:00:50;;;;;;;6.42;5.83;;;;;;;0.43;100.00;98420.50;1809892;76;25735;-62
2022/11/17 21:03:17;;;;;;;7.87;6.15;;;;;;;0.44;100.00;98418.34;1812621;76;21482;-62
2022/11/17 21:05:52;;;;;;;8.18;6.05;;;;;;;0.48;100.00;98420.42;1806329;76;21483;-61
2022/11/17 21:08:19;;;;;;;8.48;6.10;;;;;;;0.49;100.00;98420.39;1809904;77;21699;-62
2022/11/17 21:10:45;;;;;;;7.12;6.30;;;;;;;0.45;100.00;98427.78;1811719;77;21483;-63
2022/11/17 21:13:13;;;;;;;7.22;6.50;;;;;;;0.47;100.00;98431.63;1805333;76;21495;-62
2022/11/17 21:15:40;;;;;;;6.87;6.13;;;;;;;0.48;100.00;98430.31;1742611;80;21442;-66
2022/11/17 21:18:24;;;;;;;7.23;6.53;;;;;;;0.49;100.00;98433.32;1773934;79;21526;-62
2022/11/17 21:20:51;;;;;;;7.28;6.08;;;;;;;0.52;100.00;98431.09;1784136;77;21699;-64
2022/11/17 21:23:18;;;;;;;8.45;7.08;;;;;;;0.55;100.00;98431.89;1757331;77;21858;-62
2022/11/17 21:25:46;;;;;;;7.75;6.45;;;;;;;0.60;100.00;98431.77;1805442;76;21547;-62
2022/11/17 21:28:12;;;;;;;7.85;6.35;;;;;;;0.60;100.00;98431.77;1822730;76;21495;-61
2022/11/17 21:30:40;;;;;;;7.10;5.97;;;;;;;0.55;100.00;98428.45;1819056;76;21522;-63
2022/11/17 21:33:07;;;;;;;7.25;6.10;;;;;;;0.53;100.00;98432.36;1803267;76;21507;-62
2022/11/17 21:35:33;;;;;;;8.13;6.37;;;;;;;0.52;100.00;98439.70;1819083;76;21914;-62
2022/11/17 21:38:00;;;;;;;6.47;5.33;;;;;;;0.54;100.00;98437.09;1823799;76;21701;-62
2022/11/17 21:40:27;;;;;;;6.53;5.92;;;;;;;0.56;100.00;98441.33;1811261;76;21090;-63
2022/11/17 21:42:53;;;;;;;7.70;5.90;;;;;;;0.59;100.00;98449.49;1807707;76;21172;-61
2022/11/17 21:45:20;;;;;;;8.13;6.08;;;;;;;0.59;100.00;98446.91;1805108;76;21431;-62
2022/11/17 21:47:46;;;;;;;6.65;6.00;;;;;;;0.60;100.00;98446.00;1805809;76;21887;-61
2022/11/17 21:50:15;;;;;;;6.62;6.00;;;;;;;0.65;100.00;98451.09;1806932;76;21536;-61
2022/11/17 21:52:42;;;;;;;7.10;5.58;;;;;;;0.67;100.00;98454.49;1810624;76;21612;-62
2022/11/17 21:55:09;;;;;;;7.40;6.30;;;;;;;0.68;100.00;98462.23;1795708;76;21475;-61
2022/11/17 21:57:36;;;;;;;9.05;6.22;;;;;;;0.67;100.00;98460.52;1785280;77;21569;-62
2022/11/17 22:00:03;;;;;;;7.62;6.28;;;;;;;0.68;100.00;98453.59;1815388;77;21907;-61
2022/11/17 22:02:30;;;;;;;6.45;5.67;;;;;;;0.70;100.00;98463.05;1796475;76;21422;-61
2022/11/17 22:04:57;;;;;;;6.30;5.70;;;;;;;0.69;100.00;98461.78;1810735;76;21495;-62
2022/11/17 22:07:26;;;;;;;6.67;5.72;;;;;;;0.69;100.00;98457.90;1781785;77;21641;-61
2022/11/17 22:09:53;;;;;;;6.90;5.58;;;;;;;0.70;100.00;98457.87;1778358;78;22039;-62
2022/11/17 22:12:20;;;;;;;6.90;5.78;;;;;;;0.72;100.00;98460.43;1821038;76;21818;-62
2022/11/17 22:14:46;;;;;;;7.97;5.67;;;;;;;0.72;100.00;98458.69;1808333;77;21562;-61
2022/11/17 22:17:14;;;;;;;5.75;5.10;;;;;;;0.76;100.00;98458.18;1814437;77;21478;-60
